Barhom II — 5IM534 — position and weather

sailwx.info

Track history (hours):
 
Tides and Currents Weather Stations Pressure Air Temp Water Temp Dewpoint Dewpoint Depression Visibility Wind Speed Wind Dir Waves Ship Positions

Barhom II

Last reported at 2014-Oct-19 21:13 UTC. Time now 2014-Oct-21 08:58 UTC.
Position N 37°16' E 009°56'.

Length 83 m; draft 4.5 m.

Type: Cargo ship. MMSI: 677043400.

Date/timePositionNaut miles runAvg speedWind from/ knotsBaromVisibWave heightAir tempDewpointWater temp
2014-Oct-19 21:13N 37°16' E 009°56'12 7.1
2014-Oct-19 19:33N 37°26' E 009°47'1310.6
2014-Oct-19 18:18N 37°33' E 009°33'810.7
2014-Oct-19 17:33N 37°37' E 009°24'1110.7
2014-Oct-19 16:29N 37°44' E 009°13'1010.6
2014-Oct-19 15:33N 37°50' E 009°03'1010.3
2014-Oct-19 14:33N 37°56' E 008°53'1110.3
2014-Oct-19 13:27N 38°03' E 008°41'1010.8
2014-Oct-19 12:32N 38°09' E 008°31'1212.4
2014-Oct-19 11:32N 38°17' E 008°19'10 8.7
2014-Oct-19 10:24N 38°22' E 008°08'8 9.7
2014-Oct-19 09:32N 38°27' E 007°60'12210.2
2014-Oct-18 21:32N 39°40' E 005°53'1110.2
2014-Oct-18 20:30N 39°46' E 005°42'2310.1
2014-Oct-18 18:17N 39°59' E 005°18'8 9.6
2014-Oct-18 17:29N 40°04' E 005°10'9 9.6
2014-Oct-18 16:33N 40°10' E 005°01'11 9.5
2014-Oct-18 15:22N 40°16' E 004°50'10 9.5
2014-Oct-18 14:21N 40°26' E 004°46'8 9.5
2014-Oct-18 13:32N 40°33' E 004°44'10 9.7
2014-Oct-18 12:31N 40°43' E 004°40'11 9.9
2014-Oct-18 11:23N 40°53' E 004°36'10 9.8
2014-Oct-18 10:20N 41°03' E 004°32'810.0
2014-Oct-18 09:31N 41°11' E 004°29'1210.1
2014-Oct-18 08:20N 41°23' E 004°25'37 9.6
2014-Oct-18 04:30N 41°59' E 004°13'5110.3
2014-Oct-17 23:32N 42°48' E 003°54'2010.0
2014-Oct-17 21:33N 43°07' E 003°49'9 9.2
2014-Oct-17 20:33N 43°16' E 003°47'8 7.8
2014-Oct-17 19:33N 43°24' E 003°44'2 1.1
2014-Oct-17 18:11N 43°24' E 003°42'0 0.0
2014-Oct-17 17:28N 43°24' E 003°42'0 0.0
2014-Oct-17 15:33N 43°24' E 003°42'0 0.0
2014-Oct-17 13:23N 43°24' E 003°42'0 0.0
2014-Oct-17 12:31N 43°24' E 003°42'0 0.0
2014-Oct-17 10:11N 43°24' E 003°42'0 0.0
2014-Oct-17 08:12N 43°24' E 003°42'0 0.0
2014-Oct-17 06:15N 43°24' E 003°42'0 0.0
2014-Oct-16 20:32N 43°24' E 003°42'0 0.0
2014-Oct-16 18:32N 43°24' E 003°42'0 0.0
2014-Oct-16 17:11N 43°24' E 003°42'0 0.0
2014-Oct-16 16:32N 43°24' E 003°42'0 0.0
2014-Oct-16 15:31N 43°24' E 003°42'0 0.0
2014-Oct-16 14:31N 43°24' E 003°42'0 0.0
2014-Oct-16 13:32N 43°24' E 003°42'0 0.0
2014-Oct-16 11:25N 43°24' E 003°42'0 0.0
2014-Oct-16 10:25N 43°24' E 003°42'0 0.0
2014-Oct-16 09:33N 43°24' E 003°42'0 0.0
2014-Oct-16 08:31N 43°24' E 003°42'0 0.0
2014-Oct-16 06:24N 43°24' E 003°42'0 0.0
2014-Oct-15 18:18N 43°24' E 003°42'0 0.0
2014-Oct-15 17:09N 43°24' E 003°42'0 0.0
2014-Oct-15 13:23N 43°24' E 003°42'0 0.0
2014-Oct-15 12:32N 43°24' E 003°42'0 0.0
2014-Oct-15 11:33N 43°24' E 003°42'0 0.0
2014-Oct-15 10:08N 43°24' E 003°42'0 0.0
2014-Oct-15 09:04N 43°24' E 003°42'0 0.0
2014-Oct-15 08:23N 43°24' E 003°42'0 0.0
2014-Oct-15 07:29N 43°24' E 003°42'0 0.0
2014-Oct-14 19:28N 43°24' E 003°42'0 0.0
2014-Oct-14 18:23N 43°24' E 003°42'0 0.0
2014-Oct-14 16:21N 43°24' E 003°42'0 0.0
2014-Oct-14 10:07N 43°24' E 003°42'0 0.0
2014-Oct-13 17:31N 43°24' E 003°42'0 0.0
2014-Oct-13 13:19N 43°24' E 003°42'17 2.1
2014-Oct-13 05:04N 43°07' E 003°38'31 3.2
2014-Oct-12 19:21N 42°37' E 003°27'1 1.4
2014-Oct-12 18:33N 42°36' E 003°27'4 4.4
2014-Oct-12 17:31N 42°35' E 003°21'3 2.8
2014-Oct-12 16:31N 42°35' E 003°17'2 1.9
2014-Oct-12 15:32N 42°35' E 003°20'2 1.9
2014-Oct-12 14:31N 42°34' E 003°22'2 1.7
2014-Oct-12 13:32N 42°34' E 003°25'2 1.6
2014-Oct-12 12:31N 42°33' E 003°27'1 1.5
2014-Oct-12 11:33N 42°33' E 003°28'1 1.0
2014-Oct-12 10:33N 42°33' E 003°30'8 8.0
2014-Oct-12 09:33N 42°25' E 003°29'10 9.8
2014-Oct-12 08:33N 42°15' E 003°26'9 9.4
2014-Oct-12 07:33N 42°06' E 003°24'9 9.3
2014-Oct-12 06:33N 41°57' E 003°22'10 9.4
2014-Oct-12 05:32N 41°47' E 003°19'81 9.6
2014-Oct-11 21:10N 40°45' E 002°11'610.6
2014-Oct-11 20:33N 40°40' E 002°05'1110.5
2014-Oct-11 19:33N 40°32' E 001°57'1010.4
2014-Oct-11 18:33N 40°23' E 001°50'1010.4
2014-Oct-11 17:33N 40°14' E 001°44'1310.7
2014-Oct-11 16:22N 40°03' E 001°36'8 9.8
2014-Oct-11 15:33N 39°56' E 001°30'10 9.9
2014-Oct-11 14:33N 39°47' E 001°24'3510.0
2014-Oct-11 11:03N 39°17' E 001°02'103 9.7
2014-Oct-11 00:24N 37°51' W 000°12'9 9.4
2014-Oct-10 23:28N 37°45' W 000°19'8 9.4
2014-Oct-10 22:34N 37°38' W 000°26'10 9.7
2014-Oct-10 21:33N 37°31' W 000°35'9 9.2
2014-Oct-10 20:33N 37°30' W 000°46'  
Track history (hours):
 
Tides and Currents Weather Stations Pressure Air Temp Water Temp Dewpoint Dewpoint Depression Visibility Wind Speed Wind Dir Waves Ship Positions

Barhom II

Last reported at 2014-Oct-19 21:13 UTC. Time now 2014-Oct-21 08:58 UTC.
Position N 37°16' E 009°56'.

Length 83 m; draft 4.5 m.

Type: Cargo ship. MMSI: 677043400.

Date/timePositionNaut miles runAvg speedWind from/ knotsBaromVisibWave heightAir tempDewpointWater temp
2014-Oct-19 21:13N 37°16' E 009°56'12 7.1
2014-Oct-19 19:33N 37°26' E 009°47'1310.6
2014-Oct-19 18:18N 37°33' E 009°33'810.7
2014-Oct-19 17:33N 37°37' E 009°24'1110.7
2014-Oct-19 16:29N 37°44' E 009°13'1010.6
2014-Oct-19 15:33N 37°50' E 009°03'1010.3
2014-Oct-19 14:33N 37°56' E 008°53'1110.3
2014-Oct-19 13:27N 38°03' E 008°41'1010.8
2014-Oct-19 12:32N 38°09' E 008°31'1212.4
2014-Oct-19 11:32N 38°17' E 008°19'10 8.7
2014-Oct-19 10:24N 38°22' E 008°08'8 9.7
2014-Oct-19 09:32N 38°27' E 007°60'12210.2
2014-Oct-18 21:32N 39°40' E 005°53'1110.2
2014-Oct-18 20:30N 39°46' E 005°42'2310.1
2014-Oct-18 18:17N 39°59' E 005°18'8 9.6
2014-Oct-18 17:29N 40°04' E 005°10'9 9.6
2014-Oct-18 16:33N 40°10' E 005°01'11 9.5
2014-Oct-18 15:22N 40°16' E 004°50'10 9.5
2014-Oct-18 14:21N 40°26' E 004°46'8 9.5
2014-Oct-18 13:32N 40°33' E 004°44'10 9.7
2014-Oct-18 12:31N 40°43' E 004°40'11 9.9
2014-Oct-18 11:23N 40°53' E 004°36'10 9.8
2014-Oct-18 10:20N 41°03' E 004°32'810.0
2014-Oct-18 09:31N 41°11' E 004°29'1210.1
2014-Oct-18 08:20N 41°23' E 004°25'37 9.6
2014-Oct-18 04:30N 41°59' E 004°13'5110.3
2014-Oct-17 23:32N 42°48' E 003°54'2010.0
2014-Oct-17 21:33N 43°07' E 003°49'9 9.2
2014-Oct-17 20:33N 43°16' E 003°47'8 7.8
2014-Oct-17 19:33N 43°24' E 003°44'2 1.1
2014-Oct-17 18:11N 43°24' E 003°42'0 0.0
2014-Oct-17 17:28N 43°24' E 003°42'0 0.0
2014-Oct-17 15:33N 43°24' E 003°42'0 0.0
2014-Oct-17 13:23N 43°24' E 003°42'0 0.0
2014-Oct-17 12:31N 43°24' E 003°42'0 0.0
2014-Oct-17 10:11N 43°24' E 003°42'0 0.0
2014-Oct-17 08:12N 43°24' E 003°42'0 0.0
2014-Oct-17 06:15N 43°24' E 003°42'0 0.0
2014-Oct-16 20:32N 43°24' E 003°42'0 0.0
2014-Oct-16 18:32N 43°24' E 003°42'0 0.0
2014-Oct-16 17:11N 43°24' E 003°42'0 0.0
2014-Oct-16 16:32N 43°24' E 003°42'0 0.0
2014-Oct-16 15:31N 43°24' E 003°42'0 0.0
2014-Oct-16 14:31N 43°24' E 003°42'0 0.0
2014-Oct-16 13:32N 43°24' E 003°42'0 0.0
2014-Oct-16 11:25N 43°24' E 003°42'0 0.0
2014-Oct-16 10:25N 43°24' E 003°42'0 0.0
2014-Oct-16 09:33N 43°24' E 003°42'0 0.0
2014-Oct-16 08:31N 43°24' E 003°42'0 0.0
2014-Oct-16 06:24N 43°24' E 003°42'0 0.0
2014-Oct-15 18:18N 43°24' E 003°42'0 0.0
2014-Oct-15 17:09N 43°24' E 003°42'0 0.0
2014-Oct-15 13:23N 43°24' E 003°42'0 0.0
2014-Oct-15 12:32N 43°24' E 003°42'0 0.0
2014-Oct-15 11:33N 43°24' E 003°42'0 0.0
2014-Oct-15 10:08N 43°24' E 003°42'0 0.0
2014-Oct-15 09:04N 43°24' E 003°42'0 0.0
2014-Oct-15 08:23N 43°24' E 003°42'0 0.0
2014-Oct-15 07:29N 43°24' E 003°42'0 0.0
2014-Oct-14 19:28N 43°24' E 003°42'0 0.0
2014-Oct-14 18:23N 43°24' E 003°42'0 0.0
2014-Oct-14 16:21N 43°24' E 003°42'0 0.0
2014-Oct-14 10:07N 43°24' E 003°42'0 0.0
2014-Oct-13 17:31N 43°24' E 003°42'0 0.0
2014-Oct-13 13:19N 43°24' E 003°42'17 2.1
2014-Oct-13 05:04N 43°07' E 003°38'31 3.2
2014-Oct-12 19:21N 42°37' E 003°27'1 1.4
2014-Oct-12 18:33N 42°36' E 003°27'4 4.4
2014-Oct-12 17:31N 42°35' E 003°21'3 2.8
2014-Oct-12 16:31N 42°35' E 003°17'2 1.9
2014-Oct-12 15:32N 42°35' E 003°20'2 1.9
2014-Oct-12 14:31N 42°34' E 003°22'2 1.7
2014-Oct-12 13:32N 42°34' E 003°25'2 1.6
2014-Oct-12 12:31N 42°33' E 003°27'1 1.5
2014-Oct-12 11:33N 42°33' E 003°28'1 1.0
2014-Oct-12 10:33N 42°33' E 003°30'8 8.0
2014-Oct-12 09:33N 42°25' E 003°29'10 9.8
2014-Oct-12 08:33N 42°15' E 003°26'9 9.4
2014-Oct-12 07:33N 42°06' E 003°24'9 9.3
2014-Oct-12 06:33N 41°57' E 003°22'10 9.4
2014-Oct-12 05:32N 41°47' E 003°19'81 9.6
2014-Oct-11 21:10N 40°45' E 002°11'610.6
2014-Oct-11 20:33N 40°40' E 002°05'1110.5
2014-Oct-11 19:33N 40°32' E 001°57'1010.4
2014-Oct-11 18:33N 40°23' E 001°50'1010.4
2014-Oct-11 17:33N 40°14' E 001°44'1310.7
2014-Oct-11 16:22N 40°03' E 001°36'8 9.8
2014-Oct-11 15:33N 39°56' E 001°30'10 9.9
2014-Oct-11 14:33N 39°47' E 001°24'3510.0
2014-Oct-11 11:03N 39°17' E 001°02'103 9.7
2014-Oct-11 00:24N 37°51' W 000°12'9 9.4
2014-Oct-10 23:28N 37°45' W 000°19'8 9.4
2014-Oct-10 22:34N 37°38' W 000°26'10 9.7
2014-Oct-10 21:33N 37°31' W 000°35'9 9.2
2014-Oct-10 20:33N 37°30' W 000°46'  

Dump ship's entire track history